createdAt,value
2018-05-01T00:01:03.591Z,30.57
2018-05-01T00:03:31.486Z,26.67
2018-05-01T00:05:59.412Z,26.97
2018-05-01T00:08:27.379Z,26.80
2018-05-01T00:10:55.259Z,25.67
2018-05-01T00:13:22.940Z,26.07
2018-05-01T00:15:50.941Z,25.17
2018-05-01T00:18:19.567Z,23.77
2018-05-01T00:20:47.546Z,22.07
2018-05-01T00:23:16.926Z,22.23
2018-05-01T00:25:45.046Z,23.27
2018-05-01T00:28:13.939Z,21.03
2018-05-01T00:30:42.177Z,21.50
2018-05-01T00:33:09.901Z,19.90
2018-05-01T00:35:37.606Z,20.53
2018-05-01T00:38:06.547Z,18.73
2018-05-01T00:40:35.051Z,21.10
2018-05-01T00:43:02.829Z,21.30
2018-05-01T00:45:31.632Z,20.57
2018-05-01T00:48:00.163Z,20.20
2018-05-01T00:50:28.734Z,19.80
2018-05-01T00:52:56.830Z,19.90
2018-05-01T00:55:24.899Z,19.63
2018-05-01T00:57:52.627Z,19.83
2018-05-01T01:00:20.388Z,19.90
2018-05-01T01:02:48.321Z,19.77
2018-05-01T01:05:16.018Z,19.30
2018-05-01T01:07:43.977Z,17.90
2018-05-01T01:10:12.591Z,18.00
2018-05-01T01:12:41.308Z,17.10
2018-05-01T01:15:09.583Z,18.23
2018-05-01T01:17:37.706Z,16.77
2018-05-01T01:20:06.341Z,17.50
2018-05-01T01:22:34.286Z,16.87
2018-05-01T01:25:04.437Z,17.87
2018-05-01T01:27:32.591Z,17.50
2018-05-01T01:30:01.362Z,18.23
2018-05-01T01:32:29.352Z,17.85
2018-05-01T01:34:57.018Z,16.30
2018-05-01T01:37:24.680Z,16.27
2018-05-01T01:39:52.287Z,17.30
2018-05-01T01:42:19.893Z,16.00
2018-05-01T01:44:49.659Z,15.63
2018-05-01T01:47:17.785Z,15.63
2018-05-01T01:49:46.694Z,16.43
2018-05-01T01:52:14.829Z,17.10
2018-05-01T01:54:46.808Z,15.43
2018-05-01T01:57:14.525Z,14.80
2018-05-01T01:59:42.419Z,15.07
2018-05-01T02:02:10.584Z,14.53
2018-05-01T02:04:39.757Z,15.50
2018-05-01T02:12:16.423Z,15.03
2018-05-01T02:14:44.235Z,14.20
2018-05-01T02:17:12.257Z,14.77
2018-05-01T02:19:40.188Z,12.87
2018-05-01T02:22:09.065Z,13.97
2018-05-01T02:24:36.883Z,13.30
2018-05-01T02:27:04.892Z,13.90
2018-05-01T02:29:33.031Z,13.20
2018-05-01T02:32:01.217Z,14.93
2018-05-01T02:34:29.382Z,15.23
2018-05-01T02:36:58.874Z,13.80
2018-05-01T02:39:26.487Z,14.07
2018-05-01T02:41:54.341Z,13.90
2018-05-01T02:44:24.292Z,14.20
2018-05-01T02:46:52.293Z,14.57
2018-05-01T02:49:20.413Z,12.30
2018-05-01T02:51:48.551Z,13.30
2018-05-01T02:54:18.407Z,13.17
2018-05-01T02:56:46.130Z,13.50
2018-05-01T02:59:14.048Z,13.07
2018-05-01T03:01:42.278Z,13.50
2018-05-01T03:04:10.430Z,13.07
2018-05-01T03:06:40.562Z,12.83
2018-05-01T03:09:11.730Z,12.60
2018-05-01T03:11:40.129Z,14.00
2018-05-01T03:14:07.921Z,13.70
2018-05-01T03:16:35.854Z,13.20
2018-05-01T03:19:04.437Z,13.70
2018-05-01T03:21:33.407Z,13.70
2018-05-01T03:24:01.470Z,12.93
2018-05-01T03:26:30.231Z,12.57
2018-05-01T03:28:58.968Z,13.03
2018-05-01T03:31:28.718Z,11.20
2018-05-01T03:33:58.907Z,12.13
2018-05-01T03:36:26.725Z,12.00
2018-05-01T03:38:55.111Z,11.90
2018-05-01T03:41:23.022Z,13.20
2018-05-01T03:43:50.880Z,12.50
2018-05-01T03:46:19.131Z,14.20
2018-05-01T03:48:47.180Z,15.30
2018-05-01T03:51:15.093Z,13.40
2018-05-01T03:53:43.178Z,14.37
2018-05-01T03:56:11.408Z,14.70
2018-05-01T03:58:39.807Z,15.20
2018-05-01T04:01:08.891Z,14.50
2018-05-01T04:03:36.895Z,16.27
2018-05-01T04:06:05.128Z,16.03
2018-05-01T04:08:33.872Z,17.10
2018-05-01T04:11:02.553Z,15.30
2018-05-01T04:13:31.010Z,16.63
2018-05-01T04:15:59.466Z,16.17
2018-05-01T04:18:27.383Z,16.90
2018-05-01T04:20:56.039Z,15.50
2018-05-01T04:23:24.427Z,17.40
2018-05-01T04:25:53.285Z,17.70
2018-05-01T04:28:22.194Z,15.57
2018-05-01T04:30:50.531Z,16.03
2018-05-01T04:33:18.670Z,16.43
2018-05-01T04:35:48.329Z,16.60
2018-05-01T04:38:16.467Z,17.57
2018-05-01T04:40:45.105Z,16.97
2018-05-01T04:43:13.323Z,17.00
2018-05-01T04:45:41.522Z,16.77
2018-05-01T04:48:09.846Z,17.70
2018-05-01T04:50:37.897Z,17.33
2018-05-01T04:53:05.772Z,17.70
2018-05-01T04:55:33.790Z,17.43
2018-05-01T04:58:01.593Z,18.80
2018-05-01T05:00:29.523Z,18.60
2018-05-01T05:02:57.540Z,18.10
2018-05-01T05:05:26.624Z,18.63
2018-05-01T05:07:54.945Z,20.10
2018-05-01T05:10:23.185Z,19.57
2018-05-01T05:12:52.290Z,18.20
2018-05-01T05:15:21.139Z,20.20
2018-05-01T05:17:49.964Z,19.47
2018-05-01T05:20:17.971Z,17.67
2018-05-01T05:22:45.609Z,18.10
2018-05-01T05:25:13.541Z,19.00
2018-05-01T05:27:41.441Z,18.23
2018-05-01T05:30:09.501Z,18.80
2018-05-01T05:32:37.703Z,16.80
2018-05-01T05:35:06.175Z,18.43
2018-05-01T05:37:34.428Z,18.90
2018-05-01T05:40:02.871Z,18.93
2018-05-01T05:42:31.514Z,18.33
2018-05-01T05:44:59.596Z,18.07
2018-05-01T05:47:28.349Z,18.67
2018-05-01T05:49:56.819Z,18.50
2018-05-01T05:52:24.844Z,19.97
2018-05-01T05:54:52.964Z,18.73
2018-05-01T05:57:22.181Z,19.53
2018-05-01T05:59:50.339Z,18.17
2018-05-01T06:02:18.781Z,20.47
2018-05-01T06:04:46.618Z,18.57
2018-05-01T06:07:16.125Z,19.00
2018-05-01T06:09:43.948Z,19.00
2018-05-01T06:12:11.690Z,18.87
2018-05-01T06:14:39.404Z,17.90
2018-05-01T06:17:07.278Z,19.60
2018-05-01T06:19:35.145Z,18.47
2018-05-01T06:22:03.177Z,17.57
2018-05-01T06:24:31.367Z,18.53
2018-05-01T06:26:59.838Z,18.47
2018-05-01T06:29:27.726Z,18.47
2018-05-01T06:31:56.279Z,17.93
2018-05-01T06:34:24.746Z,19.97
2018-05-01T06:36:53.024Z,18.17
2018-05-01T06:39:20.797Z,18.17
2018-05-01T06:41:49.523Z,18.40
2018-05-01T06:44:17.288Z,17.80
2018-05-01T06:46:46.093Z,18.83
2018-05-01T06:49:14.051Z,19.10
2018-05-01T06:51:42.933Z,17.60
2018-05-01T06:54:10.879Z,18.47
2018-05-01T06:56:38.944Z,17.30
2018-05-01T06:59:06.786Z,19.93
2018-05-01T07:01:34.644Z,17.70
2018-05-01T07:04:03.429Z,17.80
2018-05-01T07:06:31.427Z,18.13
2018-05-01T07:08:59.906Z,18.07
2018-05-01T07:11:27.772Z,16.00
2018-05-01T07:13:55.438Z,17.73
2018-05-01T07:16:23.083Z,18.30
2018-05-01T07:18:51.765Z,17.10
2018-05-01T07:21:19.640Z,16.70
2018-05-01T07:23:47.830Z,16.27
2018-05-01T07:26:15.607Z,16.87
2018-05-01T07:28:44.389Z,16.20
2018-05-01T07:31:12.627Z,17.40
2018-05-01T07:33:41.090Z,17.20
2018-05-01T07:36:09.543Z,16.47
2018-05-01T07:38:37.316Z,16.17
2018-05-01T07:41:05.575Z,16.43
2018-05-01T07:43:33.334Z,15.57
2018-05-01T07:46:01.200Z,16.53
2018-05-01T07:48:28.957Z,16.47
2018-05-01T07:50:56.773Z,15.80
2018-05-01T07:53:24.580Z,17.20
2018-05-01T07:55:52.438Z,17.13
2018-05-01T07:58:20.168Z,16.47
2018-05-01T08:00:47.915Z,16.10
2018-05-01T08:03:15.609Z,16.00
2018-05-01T08:05:43.746Z,16.20
2018-05-01T08:08:11.529Z,16.93
2018-05-01T08:10:39.585Z,17.90
2018-05-01T08:13:07.402Z,16.83
2018-05-01T08:15:35.243Z,16.40
2018-05-01T08:18:03.030Z,16.27
2018-05-01T08:20:31.557Z,17.50
2018-05-01T08:22:59.334Z,16.03
2018-05-01T08:25:27.928Z,14.57
2018-05-01T08:27:55.852Z,15.20
2018-05-01T08:30:23.724Z,17.30
2018-05-01T08:32:51.645Z,16.43
2018-05-01T08:35:20.290Z,15.30
2018-05-01T08:37:48.401Z,15.70
2018-05-01T08:40:16.305Z,14.53
2018-05-01T08:42:44.130Z,16.30
2018-05-01T08:45:12.782Z,14.57
2018-05-01T08:47:40.576Z,16.00
2018-05-01T08:50:09.215Z,15.60
2018-05-01T08:52:36.950Z,15.40
2018-05-01T08:55:04.661Z,15.30
2018-05-01T08:57:32.606Z,15.37
2018-05-01T09:00:00.497Z,16.50
2018-05-01T09:02:29.768Z,15.20
2018-05-01T09:04:58.045Z,16.17
2018-05-01T09:07:25.866Z,15.87
2018-05-01T09:09:53.947Z,16.20
2018-05-01T09:12:22.098Z,15.77
2018-05-01T09:14:49.973Z,14.63
2018-05-01T09:17:18.101Z,16.03
2018-05-01T09:19:46.492Z,14.60
2018-05-01T09:22:15.372Z,15.80
2018-05-01T09:24:43.850Z,15.40
2018-05-01T09:27:11.741Z,14.30
2018-05-01T09:29:40.402Z,14.33
2018-05-01T09:32:08.200Z,16.00
2018-05-01T09:34:36.461Z,15.67
2018-05-01T09:37:05.429Z,15.40
2018-05-01T09:39:33.980Z,14.80
2018-05-01T09:42:01.803Z,14.70
2018-05-01T09:44:29.502Z,14.00
2018-05-01T09:46:57.716Z,15.27
2018-05-01T09:49:25.800Z,14.77
2018-05-01T09:51:54.785Z,15.27
2018-05-01T09:54:23.274Z,14.20
2018-05-01T09:56:51.358Z,15.10
2018-05-01T09:59:19.150Z,14.47
2018-05-01T10:01:47.271Z,14.47
2018-05-01T10:04:15.445Z,15.50
2018-05-01T10:06:43.167Z,15.70
2018-05-01T10:09:10.978Z,14.83
2018-05-01T10:11:39.954Z,15.47
2018-05-01T10:14:08.419Z,14.60
2018-05-01T10:16:36.757Z,14.43
2018-05-01T10:19:04.848Z,15.63
2018-05-01T10:21:32.907Z,13.93
2018-05-01T10:24:01.665Z,14.20
2018-05-01T10:26:30.395Z,14.00
2018-05-01T10:28:58.196Z,13.30
2018-05-01T10:31:26.320Z,14.30
2018-05-01T10:33:54.447Z,13.57
2018-05-01T10:36:22.678Z,13.10
2018-05-01T10:38:51.385Z,13.47
2018-05-01T10:41:19.231Z,14.60
2018-05-01T10:43:47.275Z,13.90
2018-05-01T10:46:15.447Z,14.17
2018-05-01T10:48:43.211Z,14.47
2018-05-01T10:51:11.586Z,14.77
2018-05-01T10:53:39.245Z,13.70
2018-05-01T10:56:08.147Z,13.37
2018-05-01T10:58:38.012Z,12.43
2018-05-01T11:01:05.810Z,14.20
2018-05-01T11:03:33.543Z,14.03
2018-05-01T11:06:01.360Z,13.27
2018-05-01T11:08:30.366Z,14.60
2018-05-01T11:10:59.405Z,14.27
2018-05-01T11:13:27.315Z,15.63
2018-05-01T11:15:55.133Z,14.57
2018-05-01T11:18:23.055Z,13.90
2018-05-01T11:20:50.941Z,13.80
2018-05-01T11:23:18.947Z,13.10
2018-05-01T11:25:47.411Z,13.83
2018-05-01T11:28:15.343Z,12.67
2018-05-01T11:30:43.905Z,12.53
2018-05-01T11:33:12.426Z,12.20
2018-05-01T11:35:40.264Z,13.60
2018-05-01T11:38:08.833Z,12.90
2018-05-01T11:40:36.874Z,12.83
2018-05-01T11:43:05.440Z,13.57
2018-05-01T11:45:33.124Z,11.80
2018-05-01T11:48:01.001Z,12.07
2018-05-01T11:50:29.744Z,12.80
2018-05-01T11:52:57.606Z,12.00
2018-05-01T11:55:26.015Z,12.87
2018-05-01T11:57:53.751Z,11.10
2018-05-01T12:00:21.868Z,12.33
2018-05-01T12:02:50.222Z,10.60
2018-05-01T12:05:18.961Z,19.80
2018-05-01T12:07:47.237Z,22.83
2018-05-01T12:10:15.799Z,118.73
2018-05-01T12:12:43.559Z,23.90
2018-05-01T12:15:11.973Z,23.70
2018-05-01T12:17:39.786Z,23.60
2018-05-01T12:20:07.958Z,25.13
2018-05-01T12:22:36.953Z,25.17
2018-05-01T12:25:05.786Z,25.90
2018-05-01T12:27:34.751Z,23.63
2018-05-01T12:30:03.601Z,25.13
2018-05-01T12:32:31.635Z,90.13
2018-05-01T12:34:59.340Z,37.70
2018-05-01T12:37:29.205Z,31.00
2018-05-01T12:39:57.793Z,30.50
2018-05-01T12:42:26.297Z,44.37
2018-05-01T12:44:54.517Z,39.70
2018-05-01T12:47:22.370Z,37.00
2018-05-01T12:49:51.802Z,34.90
2018-05-01T12:52:20.815Z,36.33
2018-05-01T12:54:49.302Z,37.00
2018-05-01T12:57:17.937Z,35.37
2018-05-01T12:59:46.264Z,36.60
2018-05-01T13:02:14.628Z,34.57
2018-05-01T13:04:42.898Z,34.03
2018-05-01T13:07:11.874Z,32.73
2018-05-01T13:09:39.509Z,31.87
2018-05-01T13:12:08.304Z,32.83
2018-05-01T13:14:36.421Z,32.67
2018-05-01T13:17:04.602Z,33.03
2018-05-01T13:19:33.492Z,31.83
2018-05-01T13:22:01.693Z,33.00
2018-05-01T13:24:30.738Z,30.80
2018-05-01T13:26:59.271Z,30.67
2018-05-01T13:29:28.726Z,30.17
2018-05-01T13:31:57.930Z,31.20
2018-05-01T13:34:26.296Z,30.40
2018-05-01T13:36:54.143Z,33.87
2018-05-01T13:39:22.739Z,32.00
2018-05-01T13:41:50.940Z,32.53
2018-05-01T13:44:18.820Z,30.00
2018-05-01T13:46:47.668Z,31.80
2018-05-01T13:49:15.604Z,29.97
2018-05-01T13:51:43.413Z,29.00
2018-05-01T13:54:11.105Z,30.80
2018-05-01T13:56:38.978Z,29.13
2018-05-01T13:59:08.696Z,29.00
2018-05-01T14:01:37.057Z,28.20
2018-05-01T14:04:05.430Z,26.20
2018-05-01T14:06:33.589Z,25.80
2018-05-01T14:09:01.510Z,26.47
2018-05-01T14:11:29.352Z,25.77
2018-05-01T14:13:57.783Z,26.27
2018-05-01T14:16:27.209Z,27.30
2018-05-01T14:18:55.880Z,23.40
2018-05-01T14:21:24.752Z,23.80
2018-05-01T14:23:52.773Z,25.27
2018-05-01T14:26:21.771Z,23.90
2018-05-01T14:28:50.453Z,23.50
2018-05-01T14:31:21.316Z,27.57
2018-05-01T14:33:49.154Z,27.33
2018-05-01T14:36:17.609Z,26.80
2018-05-01T14:38:45.678Z,27.00
2018-05-01T14:41:13.968Z,26.40
2018-05-01T14:43:41.827Z,28.43
2018-05-01T14:46:09.968Z,32.33
2018-05-01T14:48:38.899Z,37.70
2018-05-01T14:51:06.904Z,40.77
2018-05-01T14:53:35.967Z,39.77
2018-05-01T14:56:05.258Z,37.60
2018-05-01T14:58:35.221Z,35.10
2018-05-01T15:01:04.228Z,34.70
2018-05-01T15:03:32.285Z,32.17
2018-05-01T15:06:00.372Z,33.10
2018-05-01T15:08:28.569Z,29.70
2018-05-01T15:10:56.724Z,30.50
2018-05-01T15:13:25.048Z,29.67
2018-05-01T15:15:55.402Z,30.37
2018-05-01T15:18:24.427Z,30.63
2018-05-01T15:20:53.056Z,29.97
2018-05-01T15:23:22.728Z,30.60
2018-05-01T15:25:52.288Z,30.20
2018-05-01T15:28:20.608Z,31.13
2018-05-01T15:30:49.044Z,28.87
2018-05-01T15:33:17.322Z,28.83
2018-05-01T15:35:45.530Z,29.63
2018-05-01T15:38:13.440Z,29.73
2018-05-01T15:40:41.549Z,29.57
2018-05-01T15:43:09.571Z,28.60
2018-05-01T15:45:38.605Z,27.07
2018-05-01T15:48:07.256Z,27.10
2018-05-01T15:50:35.360Z,28.03
2018-05-01T15:53:04.739Z,26.80
2018-05-01T15:55:33.623Z,27.33
2018-05-01T15:58:01.704Z,27.63
2018-05-01T16:00:30.022Z,28.77
2018-05-01T16:02:59.483Z,28.27
2018-05-01T16:05:28.139Z,29.07
2018-05-01T16:07:57.452Z,27.27
2018-05-01T16:10:26.386Z,25.97
2018-05-01T16:12:54.476Z,29.40
2018-05-01T16:15:24.592Z,29.30
2018-05-01T16:17:52.523Z,29.93
2018-05-01T16:20:21.844Z,28.07
2018-05-01T16:22:51.017Z,27.50
2018-05-01T16:25:19.913Z,27.67
2018-05-01T16:27:48.568Z,28.70
2018-05-01T16:30:17.978Z,30.20
2018-05-01T16:32:47.236Z,29.23
2018-05-01T16:35:15.485Z,26.17
2018-05-01T16:37:44.438Z,28.87
2018-05-01T16:40:13.596Z,28.07
2018-05-01T16:42:41.757Z,28.37
2018-05-01T16:45:10.372Z,27.50
2018-05-01T16:47:39.621Z,26.17
2018-05-01T16:50:09.052Z,26.40
2018-05-01T16:52:37.457Z,27.53
2018-05-01T16:55:06.927Z,25.80
2018-05-01T16:57:38.078Z,26.97
2018-05-01T17:00:06.322Z,27.40
2018-05-01T17:02:34.727Z,27.37
2018-05-01T17:05:03.760Z,30.20
2018-05-01T17:07:31.839Z,28.50
2018-05-01T17:10:00.278Z,28.63
2018-05-01T17:12:29.265Z,29.07
2018-05-01T17:14:57.509Z,32.30
2018-05-01T17:17:25.757Z,33.70
2018-05-01T17:19:55.782Z,43.90
2018-05-01T17:22:23.808Z,70.73
2018-05-01T17:24:52.488Z,90.63
2018-05-01T17:27:20.686Z,52.97
2018-05-01T17:29:48.968Z,46.43
2018-05-01T17:32:17.051Z,40.63
2018-05-01T17:34:45.358Z,40.90
2018-05-01T17:37:14.124Z,42.63
2018-05-01T17:39:42.407Z,41.50
2018-05-01T17:42:10.989Z,45.03
2018-05-01T17:44:39.304Z,409.17
2018-05-01T17:47:08.952Z,288.27
2018-05-01T17:49:37.930Z,188.23
2018-05-01T17:52:06.101Z,127.83
2018-05-01T17:54:34.693Z,120.13
2018-05-01T17:57:03.766Z,109.63
2018-05-01T17:59:32.562Z,117.23
2018-05-01T18:02:01.527Z,118.13
2018-05-01T18:04:29.843Z,113.93
2018-05-01T18:06:59.075Z,104.80
2018-05-01T18:09:27.699Z,106.20
2018-05-01T18:11:56.302Z,103.97
2018-05-01T18:14:26.049Z,97.03
2018-05-01T18:16:57.031Z,93.57
2018-05-01T18:19:26.876Z,92.37
2018-05-01T18:21:57.379Z,92.07
2018-05-01T18:24:27.113Z,88.77
2018-05-01T18:26:55.290Z,82.40
2018-05-01T18:29:24.213Z,84.03
2018-05-01T18:31:52.601Z,81.90
2018-05-01T18:34:20.645Z,76.87
2018-05-01T18:36:48.588Z,79.10
2018-05-01T18:39:17.590Z,78.23
2018-05-01T18:41:46.865Z,76.50
2018-05-01T18:44:15.285Z,74.37
2018-05-01T18:46:44.986Z,73.00
2018-05-01T18:49:13.540Z,73.80
2018-05-01T18:51:41.853Z,77.47
2018-05-01T18:54:10.835Z,74.87
2018-05-01T18:56:39.621Z,74.00
2018-05-01T18:59:08.682Z,72.17
2018-05-01T19:01:37.417Z,69.77
2018-05-01T19:04:05.692Z,70.73
2018-05-01T19:06:34.022Z,67.00
2018-05-01T19:09:03.368Z,65.20
2018-05-01T19:11:31.912Z,66.17
2018-05-01T19:14:00.785Z,66.67
2018-05-01T19:16:28.982Z,70.63
2018-05-01T19:18:57.622Z,65.63
2018-05-01T19:21:25.912Z,65.73
2018-05-01T19:23:55.854Z,68.17
2018-05-01T19:26:24.875Z,65.77
2018-05-01T19:28:54.257Z,65.37
2018-05-01T19:31:22.608Z,63.43
2018-05-01T19:33:51.624Z,64.13
2018-05-01T19:36:20.909Z,65.10
2018-05-01T19:38:50.222Z,63.97
2018-05-01T19:41:18.976Z,60.07
2018-05-01T19:43:46.883Z,61.90
2018-05-01T19:46:16.641Z,61.07
2018-05-01T19:48:44.960Z,61.10
2018-05-01T19:51:13.360Z,59.10
2018-05-01T19:53:41.505Z,57.23
2018-05-01T19:56:10.280Z,53.70
2018-05-01T19:58:41.046Z,51.10
2018-05-01T20:01:11.871Z,56.30
2018-05-01T20:03:39.900Z,56.60
2018-05-01T20:06:07.877Z,56.33
2018-05-01T20:08:35.792Z,58.60
2018-05-01T20:11:03.780Z,55.37
2018-05-01T20:13:32.018Z,55.73
2018-05-01T20:16:01.437Z,56.33
2018-05-01T20:18:29.850Z,54.23
2018-05-01T20:20:57.995Z,52.73
2018-05-01T20:23:26.386Z,54.33
2018-05-01T20:25:55.621Z,54.60
2018-05-01T20:28:23.651Z,58.13
2018-05-01T20:30:53.547Z,55.70
2018-05-01T20:33:21.481Z,53.87
2018-05-01T20:35:50.964Z,52.00
2018-05-01T20:38:19.667Z,52.60
2018-05-01T20:40:48.387Z,51.67
2018-05-01T20:43:18.248Z,51.23
2018-05-01T20:45:47.162Z,49.83
2018-05-01T20:48:15.413Z,51.90
2018-05-01T20:50:44.481Z,49.10
2018-05-01T20:53:13.804Z,51.80
2018-05-01T20:55:42.210Z,48.60
2018-05-01T20:58:10.889Z,48.93
2018-05-01T21:00:40.855Z,50.43
2018-05-01T21:03:10.064Z,49.60
2018-05-01T21:05:38.963Z,51.93
2018-05-01T21:08:06.983Z,52.73
2018-05-01T21:10:35.699Z,52.00
2018-05-01T21:13:04.734Z,50.33
2018-05-01T21:15:34.418Z,47.53
2018-05-01T21:18:02.989Z,48.20
2018-05-01T21:20:31.405Z,48.47
2018-05-01T21:23:03.332Z,49.23
2018-05-01T21:25:31.454Z,46.40
2018-05-01T21:27:59.726Z,47.33
2018-05-01T21:30:29.746Z,45.97
2018-05-01T21:32:58.603Z,45.57
2018-05-01T21:35:27.314Z,43.90
2018-05-01T21:37:55.755Z,43.07
2018-05-01T21:40:23.695Z,40.67
2018-05-01T21:42:52.190Z,41.23
2018-05-01T21:45:20.322Z,39.67
2018-05-01T21:47:49.991Z,40.70
2018-05-01T21:50:18.214Z,40.60
2018-05-01T21:52:46.837Z,40.20
2018-05-01T21:55:17.861Z,39.50
2018-05-01T21:57:46.198Z,38.53
2018-05-01T22:00:16.644Z,38.10
2018-05-01T22:02:48.742Z,40.23
2018-05-01T22:05:17.273Z,38.20
2018-05-01T22:07:45.700Z,36.53
2018-05-01T22:10:15.008Z,36.00
2018-05-01T22:12:44.125Z,34.67
2018-05-01T22:15:13.210Z,37.17
2018-05-01T22:17:42.110Z,36.63
2018-05-01T22:22:47.259Z,35.97
2018-05-01T22:25:17.626Z,35.77
2018-05-01T22:27:47.128Z,34.40
2018-05-01T22:30:16.443Z,34.77
2018-05-01T22:32:44.431Z,36.63
2018-05-01T22:35:12.245Z,35.07
2018-05-01T22:37:40.499Z,35.90
2018-05-01T22:40:10.581Z,34.30
2018-05-01T22:42:44.785Z,34.47
2018-05-01T22:45:19.545Z,34.60
2018-05-01T22:47:50.457Z,35.20
2018-05-01T22:50:20.763Z,34.30
2018-05-01T22:52:53.346Z,32.90
2018-05-01T22:55:21.770Z,34.30
2018-05-01T22:57:49.890Z,401.05
2018-05-01T23:00:20.879Z,115.07
2018-05-01T23:02:49.314Z,88.33
2018-05-01T23:05:23.762Z,82.83
2018-05-01T23:07:52.410Z,65.35
2018-05-01T23:10:23.024Z,61.73
2018-05-01T23:12:51.871Z,58.53
2018-05-01T23:15:20.035Z,64.47
2018-05-01T23:17:49.224Z,60.27
2018-05-01T23:20:20.569Z,66.30
2018-05-01T23:22:55.528Z,65.30
2018-05-01T23:25:25.684Z,61.20
2018-05-01T23:27:53.665Z,61.50
2018-05-01T23:30:23.752Z,57.93
2018-05-01T23:32:52.433Z,59.07
2018-05-01T23:35:22.458Z,63.33
2018-05-01T23:37:51.682Z,60.43
2018-05-01T23:40:21.066Z,58.00
2018-05-01T23:42:50.244Z,58.57
2018-05-01T23:45:20.409Z,54.47
2018-05-01T23:47:49.231Z,53.83
2018-05-01T23:50:17.107Z,51.53
2018-05-01T23:52:47.575Z,53.17
2018-05-01T23:55:20.863Z,52.30
2018-05-01T23:57:49.763Z,53.27
